Maxwell Air Force Base
KMXF : now visible

Airfield :











YOU CAN JOIN US ON...

 
LOGIN :

Register | Disclaimer

   EN    FR    IT 

 









Legend :    VFR   Marginal VFR   IFR   Intensive IFR   Very Intensive IFR
Visi :
Ceiling :
>= 8 km
>= 3000ft
5 to 8 km
1000 to 3000 ft
1500m to 5 km
500 to 1000 ft
800 to 1500m
200 to 500 ft
< 800m
< 200 ft
Symbols :   Thunderstorms  Fog  Heavy snow  Heavy precipitations  Wind > 20 kt







- Airport Elevation : 171 ft


KMXF - Maxwell Air Force Base

CURRENT METAR :
  • 200956Z AUTO 06005KT 10SM CLR 21/13 A3018 RMK AO2 SLP221 T02060126

EXPIRED METARs :
  • 200856Z AUTO 08006KT 10SM CLR 21/12 A3016 RMK AO2 SLP214 T02130119 52005
  • 200756Z AUTO 09007KT 10SM CLR 22/12 A3015 RMK AO2 SLP211 T02220122

TAF TAF KMXF
Valid from the 19 at 19:00 until the 21 at 01:00 UTC


191900Z 1919/2101 09010G15KT 9999 SCT045 QNH3004INS
BECMG 2001/2002 09009KT 9999 FEW045 QNH3005INS TX33/1920Z TN18/2012Z LAST NO AMDS AFT 2003 NEXT 2011
No reported NOTAMs for that airfield.



MET'MAP, your aeronautical weather chart ! - Copyright ORBIFLY December 2007 - Disclaimer

ORBIFLY MET'MAP TEAM :

Programming & Development : Alexandra Zaïnal
Concept & Development : Baudouin d'Aumeries
Co-Development & Prog : Marc-Olivier Méhu
Technical & hardware support : Manuel Goepfert

Contact : metmap@orbifly.com




SOURCES & CREDITS :

   NOAA       Earth
Advisory